createdAt,value
2022-11-18T00:01:39.806Z,7.28
2022-11-18T00:04:06.525Z,7.38
2022-11-18T00:06:33.214Z,7.32
2022-11-18T00:09:01.112Z,7.37
2022-11-18T00:11:47.094Z,7.35
2022-11-18T00:14:19.245Z,7.34
2022-11-18T00:16:48.224Z,7.32
2022-11-18T00:19:15.566Z,7.34
2022-11-18T00:21:42.867Z,7.31
2022-11-18T00:24:09.774Z,7.32
2022-11-18T00:26:36.729Z,7.36
2022-11-18T00:29:03.967Z,7.42
2022-11-18T00:31:30.839Z,7.43
2022-11-18T00:33:57.696Z,7.47
2022-11-18T00:36:24.495Z,7.47
2022-11-18T00:38:51.211Z,7.49
2022-11-18T00:41:18.127Z,7.38
2022-11-18T00:43:45.058Z,7.44
2022-11-18T00:46:13.258Z,7.50
2022-11-18T00:48:40.545Z,7.54
2022-11-18T00:51:16.668Z,7.54
2022-11-18T00:53:43.655Z,7.53
2022-11-18T00:56:10.945Z,7.50
2022-11-18T00:58:38.159Z,7.46
2022-11-18T01:01:05.496Z,7.55
2022-11-18T01:03:32.362Z,7.66
2022-11-18T01:05:59.046Z,7.66
2022-11-18T01:08:26.178Z,7.65
2022-11-18T01:10:54.043Z,7.65
2022-11-18T01:13:23.339Z,7.69
2022-11-18T01:15:55.099Z,7.71
2022-11-18T01:18:24.288Z,7.69
2022-11-18T01:20:51.100Z,7.73
2022-11-18T01:23:19.269Z,7.81
2022-11-18T01:25:48.447Z,7.73
2022-11-18T01:28:21.967Z,7.63
2022-11-18T01:30:49.902Z,7.70
2022-11-18T01:33:16.564Z,7.70
2022-11-18T01:35:44.135Z,7.73
2022-11-18T01:38:12.783Z,7.73
2022-11-18T01:40:40.305Z,7.75
2022-11-18T01:43:13.190Z,7.76
2022-11-18T01:45:41.540Z,7.78
2022-11-18T01:48:32.475Z,7.84
2022-11-18T01:51:06.915Z,7.87
2022-11-18T01:53:37.976Z,7.85
2022-11-18T01:56:08.844Z,7.95
2022-11-18T01:58:42.157Z,7.98
2022-11-18T02:01:09.339Z,7.84
2022-11-18T02:03:36.429Z,7.94
2022-11-18T02:06:05.707Z,7.95
2022-11-18T02:08:33.037Z,7.94
2022-11-18T02:10:59.763Z,7.94
2022-11-18T02:13:26.537Z,8.01
2022-11-18T02:16:15.914Z,7.98
2022-11-18T02:19:04.477Z,7.95
2022-11-18T02:22:23.503Z,8.02
2022-11-18T02:24:59.851Z,7.89
2022-11-18T02:27:36.610Z,7.96
2022-11-18T02:30:11.092Z,7.96
2022-11-18T02:33:02.690Z,8.00
2022-11-18T02:35:47.260Z,8.00
2022-11-18T02:38:15.998Z,8.00
2022-11-18T02:40:54.012Z,8.05
2022-11-18T02:43:28.138Z,8.00
2022-11-18T02:45:57.840Z,8.06
2022-11-18T02:48:26.515Z,8.08
2022-11-18T02:50:53.895Z,8.12
2022-11-18T02:53:21.852Z,8.11
2022-11-18T02:55:49.746Z,8.12
2022-11-18T02:58:18.290Z,8.15
2022-11-18T03:00:45.132Z,8.16
2022-11-18T03:03:31.826Z,8.18
2022-11-18T03:06:24.952Z,8.14
2022-11-18T03:09:29.011Z,8.14
2022-11-18T03:12:22.080Z,8.22
2022-11-18T03:15:20.788Z,8.19
2022-11-18T03:18:28.436Z,8.19
2022-11-18T03:21:08.492Z,8.03
2022-11-18T03:23:55.539Z,8.13
2022-11-18T03:26:30.223Z,8.12
2022-11-18T03:29:05.147Z,8.03
2022-11-18T03:31:54.866Z,7.95
2022-11-18T03:34:27.786Z,8.01
2022-11-18T03:37:00.697Z,8.04
2022-11-18T03:39:31.014Z,8.05
2022-11-18T03:42:18.274Z,7.92
2022-11-18T03:44:52.668Z,7.93
2022-11-18T03:47:32.054Z,7.98
2022-11-18T03:50:12.878Z,8.06
2022-11-18T03:52:40.132Z,8.11
2022-11-18T03:55:12.874Z,8.15
2022-11-18T03:57:44.395Z,8.16
2022-11-18T04:00:13.805Z,8.17
2022-11-18T04:02:40.768Z,8.33
2022-11-18T04:05:11.092Z,8.29
2022-11-18T04:07:43.291Z,8.29
2022-11-18T04:10:32.483Z,8.28
2022-11-18T04:13:06.974Z,8.16
2022-11-18T04:15:37.311Z,8.26
2022-11-18T04:18:04.178Z,8.28
2022-11-18T04:20:32.678Z,8.27
2022-11-18T04:22:59.952Z,8.28
2022-11-18T04:25:26.779Z,8.23
2022-11-18T04:27:53.447Z,8.17
2022-11-18T04:30:20.233Z,8.21
2022-11-18T04:32:47.247Z,8.30
2022-11-18T04:35:14.541Z,8.24
2022-11-18T04:37:41.389Z,8.26
2022-11-18T04:40:09.250Z,8.27
2022-11-18T04:42:36.121Z,8.37
2022-11-18T04:47:42.267Z,8.38
2022-11-18T04:50:09.530Z,8.42
2022-11-18T04:52:36.340Z,8.45
2022-11-18T04:55:03.154Z,8.51
2022-11-18T04:57:29.847Z,8.33
2022-11-18T04:59:56.677Z,8.41
2022-11-18T05:02:23.501Z,8.47
2022-11-18T05:04:50.212Z,8.48
2022-11-18T05:07:16.973Z,8.47
2022-11-18T05:09:43.814Z,8.45
2022-11-18T05:12:33.304Z,8.47
2022-11-18T05:15:00.822Z,8.51
2022-11-18T05:17:27.615Z,8.53
2022-11-18T05:19:54.586Z,8.57
2022-11-18T05:22:21.300Z,8.59
2022-11-18T05:24:48.091Z,8.56
2022-11-18T05:27:15.499Z,8.51
2022-11-18T05:29:42.439Z,8.52
2022-11-18T05:32:09.329Z,8.57
2022-11-18T05:34:36.029Z,8.58
2022-11-18T05:37:03.083Z,8.61
2022-11-18T05:39:30.020Z,8.52
2022-11-18T05:42:15.556Z,8.48
2022-11-18T05:44:42.338Z,8.55
2022-11-18T05:47:09.174Z,8.57
2022-11-18T05:49:36.043Z,8.59
2022-11-18T05:52:02.982Z,8.56
2022-11-18T05:54:30.033Z,8.58
2022-11-18T05:56:56.863Z,8.54
2022-11-18T05:59:23.629Z,8.70
2022-11-18T06:02:02.444Z,8.76
2022-11-18T06:04:36.876Z,8.55
2022-11-18T06:07:08.135Z,8.49
2022-11-18T06:09:38.545Z,8.52
2022-11-18T06:12:06.125Z,8.46
2022-11-18T06:14:44.944Z,8.61
2022-11-18T06:17:24.055Z,8.74
2022-11-18T06:19:51.013Z,8.61
2022-11-18T06:22:17.817Z,8.76
2022-11-18T06:24:44.661Z,8.62
2022-11-18T06:27:11.935Z,8.57
2022-11-18T06:29:38.680Z,8.46
2022-11-18T06:32:05.553Z,8.43
2022-11-18T06:34:35.616Z,8.52
2022-11-18T06:37:16.924Z,8.55
2022-11-18T06:39:44.039Z,8.44
2022-11-18T06:42:10.944Z,8.48
2022-11-18T06:44:37.911Z,8.62
2022-11-18T06:47:04.834Z,8.47
2022-11-18T06:49:31.588Z,8.41
2022-11-18T06:51:58.303Z,8.42
2022-11-18T06:54:25.052Z,8.48
2022-11-18T06:56:51.874Z,8.56
2022-11-18T06:59:24.085Z,8.56
2022-11-18T07:01:53.418Z,8.38
2022-11-18T07:04:20.832Z,8.37
2022-11-18T07:06:47.721Z,8.26
2022-11-18T07:09:14.495Z,8.34
2022-11-18T07:11:41.750Z,8.42
2022-11-18T07:14:09.390Z,8.49
2022-11-18T07:16:37.035Z,8.56
2022-11-18T07:19:12.055Z,8.46
2022-11-18T07:21:39.275Z,8.46
2022-11-18T07:24:07.817Z,8.37
2022-11-18T07:26:35.640Z,8.39
2022-11-18T07:29:02.567Z,8.48
2022-11-18T07:31:29.669Z,8.43
2022-11-18T07:33:56.496Z,8.47
2022-11-18T07:36:34.028Z,8.38
2022-11-18T07:39:02.609Z,8.45
2022-11-18T07:41:30.268Z,8.45
2022-11-18T07:44:00.844Z,8.40
2022-11-18T07:46:33.355Z,8.36
2022-11-18T07:49:02.467Z,8.35
2022-11-18T07:51:31.206Z,8.22
2022-11-18T07:53:58.158Z,8.15
2022-11-18T07:56:25.088Z,8.16
2022-11-18T07:58:56.432Z,7.96
2022-11-18T08:01:24.975Z,7.98
2022-11-18T08:03:52.324Z,8.04
2022-11-18T08:06:19.590Z,8.00
2022-11-18T08:08:47.011Z,8.04
2022-11-18T08:11:21.615Z,8.02
2022-11-18T08:13:49.279Z,7.87
2022-11-18T08:16:18.754Z,7.96
2022-11-18T08:18:46.056Z,7.79
2022-11-18T08:21:13.336Z,7.73
2022-11-18T08:23:42.338Z,7.83
2022-11-18T08:26:15.808Z,7.82
2022-11-18T08:28:43.724Z,7.79
2022-11-18T08:31:12.677Z,7.83
2022-11-18T08:33:39.851Z,7.84
2022-11-18T08:36:18.720Z,7.92
2022-11-18T08:38:45.853Z,7.83
2022-11-18T08:41:18.093Z,7.84
2022-11-18T08:43:44.993Z,7.85
2022-11-18T08:46:11.841Z,7.83
2022-11-18T08:48:38.627Z,7.90
2022-11-18T08:51:05.546Z,7.71
2022-11-18T08:53:33.079Z,7.77
2022-11-18T08:56:01.090Z,7.87
2022-11-18T08:58:28.238Z,7.79
2022-11-18T09:00:55.449Z,7.85
2022-11-18T09:03:23.095Z,7.82
2022-11-18T09:05:50.135Z,7.79
2022-11-18T09:08:17.281Z,7.81
2022-11-18T09:10:44.084Z,7.76
2022-11-18T09:13:47.836Z,7.78
2022-11-18T09:16:01.303Z,7.77
2022-11-18T09:18:28.080Z,7.84
2022-11-18T09:20:59.330Z,7.57
2022-11-18T09:23:26.214Z,7.89
2022-11-18T09:26:00.757Z,7.78
2022-11-18T09:28:27.594Z,7.73
2022-11-18T09:30:55.343Z,7.74
2022-11-18T09:33:22.921Z,7.93
2022-11-18T09:35:49.825Z,7.72
2022-11-18T09:38:17.209Z,7.90
2022-11-18T09:40:53.638Z,7.91
2022-11-18T09:43:37.920Z,8.08
2022-11-18T09:46:21.276Z,8.00
2022-11-18T09:49:08.809Z,8.08
2022-11-18T09:51:40.391Z,8.01
2022-11-18T09:54:12.582Z,7.99
2022-11-18T09:56:41.498Z,8.03
2022-11-18T09:59:12.492Z,7.94
2022-11-18T10:01:39.416Z,8.00
2022-11-18T10:04:06.495Z,7.86
2022-11-18T10:06:34.315Z,7.71
2022-11-18T10:09:40.131Z,7.82
2022-11-18T10:12:37.693Z,7.81
2022-11-18T10:15:38.057Z,7.60
2022-11-18T10:18:52.901Z,7.74
2022-11-18T10:21:46.106Z,7.70
2022-11-18T10:24:18.178Z,7.64
2022-11-18T10:26:45.424Z,7.53
2022-11-18T10:29:12.352Z,7.59
2022-11-18T10:31:40.920Z,7.68
2022-11-18T10:34:11.091Z,7.70
2022-11-18T10:36:38.185Z,7.65
2022-11-18T10:39:15.798Z,7.66
2022-11-18T10:41:50.514Z,7.66
2022-11-18T10:44:40.830Z,7.69
2022-11-18T10:47:26.578Z,7.62
2022-11-18T10:49:55.692Z,7.58
2022-11-18T10:52:22.893Z,7.59
2022-11-18T10:55:07.989Z,7.41
2022-11-18T10:57:43.505Z,7.48
2022-11-18T11:00:37.395Z,7.37
2022-11-18T11:03:45.826Z,7.28
2022-11-18T11:06:27.805Z,7.19
2022-11-18T11:09:03.793Z,7.09
2022-11-18T11:11:33.483Z,7.03
2022-11-18T11:14:32.675Z,7.04
2022-11-18T11:17:06.842Z,7.01
2022-11-18T11:19:36.287Z,7.06
2022-11-18T11:22:03.116Z,7.12
2022-11-18T11:24:29.994Z,7.09
2022-11-18T11:30:25.683Z,6.93
2022-11-18T11:33:21.742Z,7.12
2022-11-18T11:36:17.063Z,6.94
2022-11-18T11:39:25.887Z,6.98
2022-11-18T11:42:37.412Z,6.98
2022-11-18T11:45:24.379Z,6.98
2022-11-18T11:48:20.607Z,6.97
2022-11-18T11:51:03.348Z,6.85
2022-11-18T11:54:22.486Z,6.80
2022-11-18T11:57:16.895Z,6.73
2022-11-18T12:00:04.930Z,6.59
2022-11-18T12:02:54.217Z,6.80
2022-11-18T12:05:34.478Z,6.71
2022-11-18T12:08:03.375Z,6.62
2022-11-18T12:10:31.864Z,6.73
2022-11-18T12:13:26.089Z,6.70
2022-11-18T12:16:15.912Z,6.84
2022-11-18T12:18:51.115Z,6.83
2022-11-18T12:21:48.518Z,6.77
2022-11-18T12:24:36.633Z,6.72
2022-11-18T12:27:38.841Z,6.68
2022-11-18T12:30:06.439Z,6.38
2022-11-18T12:32:43.067Z,6.30
2022-11-18T12:35:28.015Z,6.39
2022-11-18T12:37:59.239Z,6.33
2022-11-18T12:40:39.169Z,6.19
2022-11-18T12:43:49.052Z,6.27
2022-11-18T12:46:48.031Z,6.28
2022-11-18T12:49:44.099Z,6.16
2022-11-18T12:52:29.164Z,6.18
2022-11-18T12:54:57.168Z,6.30
2022-11-18T12:57:32.986Z,6.17
2022-11-18T13:00:33.466Z,6.15
2022-11-18T13:03:01.681Z,6.08
2022-11-18T13:05:33.953Z,6.08
2022-11-18T13:08:13.434Z,5.90
2022-11-18T13:11:15.241Z,5.98
2022-11-18T13:13:42.748Z,5.84
2022-11-18T13:16:43.190Z,5.88
2022-11-18T13:19:10.385Z,5.68
2022-11-18T13:21:55.914Z,5.72
2022-11-18T13:24:23.170Z,5.51
2022-11-18T13:26:55.097Z,5.61
2022-11-18T13:29:38.766Z,5.67
2022-11-18T13:32:21.215Z,5.61
2022-11-18T13:34:50.812Z,5.71
2022-11-18T13:37:34.308Z,5.52
2022-11-18T13:40:01.383Z,5.68
2022-11-18T13:42:30.372Z,5.37
2022-11-18T13:44:59.001Z,5.35
2022-11-18T13:47:47.950Z,5.30
2022-11-18T13:50:23.104Z,5.18
2022-11-18T13:52:53.448Z,5.32
2022-11-18T13:55:23.226Z,5.25
2022-11-18T13:57:52.447Z,5.29
2022-11-18T14:00:30.351Z,5.37
2022-11-18T14:03:12.116Z,5.00
2022-11-18T14:05:40.478Z,5.13
2022-11-18T14:08:18.802Z,4.95
2022-11-18T14:10:45.756Z,5.07
2022-11-18T14:13:44.381Z,5.09
2022-11-18T14:16:41.335Z,5.04
2022-11-18T14:19:26.996Z,4.97
2022-11-18T14:21:53.708Z,4.97
2022-11-18T14:24:27.418Z,4.97
2022-11-18T14:26:54.286Z,4.88
2022-11-18T14:29:23.333Z,4.83
2022-11-18T14:32:15.250Z,4.81
2022-11-18T14:34:42.249Z,4.74
2022-11-18T14:37:13.488Z,4.76
2022-11-18T14:39:40.702Z,4.64
2022-11-18T14:42:11.569Z,4.66
2022-11-18T14:44:38.332Z,4.51
2022-11-18T14:47:22.985Z,4.49
2022-11-18T14:49:49.644Z,4.50
2022-11-18T14:52:16.622Z,4.51
2022-11-18T14:54:43.379Z,4.54
2022-11-18T14:57:16.526Z,4.43
2022-11-18T14:59:44.603Z,4.44
2022-11-18T15:02:16.464Z,4.11
2022-11-18T15:07:22.826Z,4.12
2022-11-18T15:09:50.985Z,4.21
2022-11-18T15:12:17.847Z,4.15
2022-11-18T15:14:44.611Z,3.87
2022-11-18T15:17:12.522Z,3.99
2022-11-18T15:19:40.915Z,3.69
2022-11-18T15:22:08.233Z,3.84
2022-11-18T15:24:35.043Z,3.84
2022-11-18T15:27:05.504Z,3.81
2022-11-18T15:29:32.633Z,3.89
2022-11-18T15:32:00.331Z,3.96
2022-11-18T15:34:27.215Z,4.11
2022-11-18T15:36:53.993Z,4.10
2022-11-18T15:39:20.700Z,4.04
2022-11-18T15:41:47.523Z,3.95
2022-11-18T15:44:14.306Z,3.89
2022-11-18T15:46:41.088Z,3.71
2022-11-18T15:49:13.596Z,3.95
2022-11-18T15:51:40.842Z,3.88
2022-11-18T15:54:07.846Z,4.03
2022-11-18T15:56:35.382Z,3.98
2022-11-18T15:59:11.646Z,3.93
2022-11-18T16:01:40.862Z,3.72
2022-11-18T16:04:10.093Z,3.92
2022-11-18T16:06:37.708Z,3.97
2022-11-18T16:09:05.596Z,3.81
2022-11-18T16:11:51.383Z,3.65
2022-11-18T16:14:20.036Z,3.72
2022-11-18T16:16:48.604Z,3.49
2022-11-18T16:19:17.850Z,3.54
2022-11-18T16:21:47.548Z,3.50
2022-11-18T16:24:19.160Z,3.56
2022-11-18T16:26:46.345Z,3.51
2022-11-18T16:29:16.071Z,3.48
2022-11-18T16:31:44.403Z,3.44
2022-11-18T16:34:30.153Z,3.50
2022-11-18T16:36:58.287Z,3.42
2022-11-18T16:39:27.284Z,3.42
2022-11-18T16:42:08.516Z,3.41
2022-11-18T16:44:37.020Z,3.18
2022-11-18T16:47:13.717Z,3.30
2022-11-18T16:49:41.758Z,3.10
2022-11-18T16:52:09.479Z,3.09
2022-11-18T16:54:42.921Z,3.00
2022-11-18T16:57:12.076Z,3.20
2022-11-18T16:59:39.539Z,3.10
2022-11-18T17:02:06.753Z,3.08
2022-11-18T17:04:36.419Z,3.09
2022-11-18T17:07:03.516Z,3.08
2022-11-18T17:09:30.474Z,3.07
2022-11-18T17:11:58.919Z,3.10
2022-11-18T17:14:25.931Z,3.05
2022-11-18T17:16:53.331Z,3.05
2022-11-18T17:19:22.280Z,2.73
2022-11-18T17:21:50.435Z,2.86
2022-11-18T17:24:19.620Z,2.74
2022-11-18T17:26:47.838Z,2.77
2022-11-18T17:29:15.847Z,2.95
2022-11-18T17:31:43.131Z,3.04
2022-11-18T17:34:12.326Z,2.98
2022-11-18T17:36:39.131Z,2.94
2022-11-18T17:39:05.946Z,2.91
2022-11-18T17:41:51.721Z,3.03
2022-11-18T17:44:19.298Z,3.06
2022-11-18T17:46:47.603Z,2.91
2022-11-18T17:49:19.239Z,2.86
2022-11-18T17:51:46.343Z,2.94
2022-11-18T17:54:14.390Z,2.89
2022-11-18T17:56:41.544Z,2.86
2022-11-18T17:59:08.480Z,2.68
2022-11-18T18:01:36.044Z,2.49
2022-11-18T18:04:03.464Z,2.48
2022-11-18T18:06:30.626Z,2.52
2022-11-18T18:08:58.482Z,2.37
2022-11-18T18:11:26.656Z,2.48
2022-11-18T18:14:12.592Z,2.48
2022-11-18T18:16:42.405Z,2.40
2022-11-18T18:19:11.354Z,2.32
2022-11-18T18:21:38.509Z,2.36
2022-11-18T18:24:06.153Z,2.41
2022-11-18T18:26:33.438Z,2.11
2022-11-18T18:29:01.045Z,2.06
2022-11-18T18:31:28.435Z,2.27
2022-11-18T18:33:56.152Z,2.16
2022-11-18T18:36:25.568Z,2.22
2022-11-18T18:38:52.874Z,2.20
2022-11-18T18:41:21.884Z,2.14
2022-11-18T18:43:49.639Z,2.03
2022-11-18T18:46:34.321Z,2.01
2022-11-18T18:49:12.451Z,2.08
2022-11-18T18:51:45.168Z,1.95
2022-11-18T18:54:14.926Z,1.94
2022-11-18T18:56:42.217Z,2.04
2022-11-18T18:59:09.721Z,1.83
2022-11-18T19:01:37.432Z,1.85
2022-11-18T19:04:06.475Z,1.69
2022-11-18T19:06:58.456Z,1.71
2022-11-18T19:09:22.775Z,1.68
2022-11-18T19:12:08.368Z,1.64
2022-11-18T19:14:35.681Z,1.57
2022-11-18T19:17:09.616Z,1.58
2022-11-18T19:19:57.168Z,1.61
2022-11-18T19:22:24.386Z,1.71
2022-11-18T19:24:51.929Z,1.80
2022-11-18T19:27:19.894Z,1.81
2022-11-18T19:29:47.324Z,1.57
2022-11-18T19:32:14.835Z,1.46
2022-11-18T19:34:42.054Z,1.59
2022-11-18T19:37:08.947Z,1.48
2022-11-18T19:39:35.865Z,1.51
2022-11-18T19:42:05.482Z,1.57
2022-11-18T19:44:38.704Z,1.58
2022-11-18T19:47:05.666Z,1.65
2022-11-18T19:49:32.539Z,1.57
2022-11-18T19:51:59.385Z,1.47
2022-11-18T19:54:26.436Z,1.40
2022-11-18T19:56:53.201Z,1.38
2022-11-18T19:59:20.233Z,1.39
2022-11-18T20:01:47.332Z,1.42
2022-11-18T20:04:14.554Z,1.46
2022-11-18T20:06:41.413Z,1.26
2022-11-18T20:09:10.051Z,1.33
2022-11-18T20:11:38.546Z,1.36
2022-11-18T20:14:06.117Z,1.40
2022-11-18T20:16:33.279Z,1.53
2022-11-18T20:19:06.338Z,1.49
2022-11-18T20:21:36.190Z,1.49
2022-11-18T20:24:04.923Z,1.48
2022-11-18T20:26:37.813Z,1.39
2022-11-18T20:29:06.405Z,1.36
2022-11-18T20:31:34.787Z,1.55
2022-11-18T20:34:01.979Z,1.45
2022-11-18T20:36:31.670Z,1.26
2022-11-18T20:39:07.156Z,1.47
2022-11-18T20:41:36.524Z,1.45
2022-11-18T20:44:04.525Z,1.38
2022-11-18T20:46:31.609Z,1.23
2022-11-18T20:48:59.027Z,1.17
2022-11-18T20:51:27.591Z,1.27
2022-11-18T20:53:55.428Z,1.41
2022-11-18T20:56:25.790Z,1.42
2022-11-18T20:58:52.966Z,1.35
2022-11-18T21:01:22.426Z,1.10
2022-11-18T21:03:54.988Z,1.33
2022-11-18T21:06:23.611Z,1.17
2022-11-18T21:08:55.561Z,1.11
2022-11-18T21:11:22.704Z,1.20
2022-11-18T21:14:08.142Z,1.20
2022-11-18T21:16:34.970Z,1.22
2022-11-18T21:19:01.885Z,1.35
2022-11-18T21:21:49.226Z,1.25
2022-11-18T21:24:20.998Z,1.02
2022-11-18T21:26:49.594Z,1.33
2022-11-18T21:29:17.916Z,1.32
2022-11-18T21:31:45.993Z,1.31
2022-11-18T21:34:13.200Z,1.17
2022-11-18T21:36:44.980Z,1.06
2022-11-18T21:39:14.564Z,1.29
2022-11-18T21:41:41.546Z,1.21
2022-11-18T21:44:10.501Z,1.09
2022-11-18T21:46:39.225Z,0.92
2022-11-18T21:49:06.728Z,1.00
2022-11-18T21:51:34.710Z,1.13
2022-11-18T21:54:02.176Z,1.10
2022-11-18T21:56:33.690Z,0.95
2022-11-18T21:59:01.493Z,1.02
2022-11-18T22:01:33.943Z,1.12
2022-11-18T22:04:04.473Z,1.17
2022-11-18T22:06:33.983Z,1.03
2022-11-18T22:09:01.912Z,1.09
2022-11-18T22:11:30.794Z,1.05
2022-11-18T22:13:58.167Z,1.05
2022-11-18T22:16:26.045Z,1.10
2022-11-18T22:18:59.081Z,1.24
2022-11-18T22:21:28.254Z,1.14
2022-11-18T22:24:00.021Z,1.14
2022-11-18T22:26:27.503Z,1.08
2022-11-18T22:28:56.613Z,1.02
2022-11-18T22:31:24.487Z,1.07
2022-11-18T22:33:52.137Z,1.05
2022-11-18T22:36:21.549Z,0.80
2022-11-18T22:38:48.755Z,0.85
2022-11-18T22:41:44.789Z,0.99
2022-11-18T22:44:13.932Z,0.92
2022-11-18T22:46:42.165Z,0.98
2022-11-18T22:49:10.673Z,0.91
2022-11-18T22:51:38.302Z,0.93
2022-11-18T22:56:54.403Z,0.90
2022-11-18T22:59:21.714Z,0.83
2022-11-18T23:01:51.436Z,0.61
2022-11-18T23:04:18.379Z,0.82
2022-11-18T23:06:45.442Z,0.96
2022-11-18T23:09:12.713Z,0.75
2022-11-18T23:11:58.296Z,0.76
2022-11-18T23:14:25.332Z,0.91
2022-11-18T23:16:52.278Z,0.84
2022-11-18T23:19:20.155Z,0.78
2022-11-18T23:21:47.268Z,0.69
2022-11-18T23:24:15.964Z,0.76
2022-11-18T23:26:43.772Z,0.75
2022-11-18T23:29:11.699Z,0.74
2022-11-18T23:31:41.196Z,0.87
2022-11-18T23:34:08.182Z,0.88
2022-11-18T23:36:34.998Z,0.73
2022-11-18T23:39:01.986Z,0.80
2022-11-18T23:41:28.907Z,0.72
2022-11-18T23:43:56.029Z,0.74
2022-11-18T23:46:22.979Z,0.68
2022-11-18T23:48:50.226Z,0.80
2022-11-18T23:51:19.047Z,0.58
2022-11-18T23:53:48.252Z,0.58
2022-11-18T23:56:17.059Z,0.50
2022-11-18T23:58:48.496Z,0.59
